Time;durP1;ratioP1;P1;durP2;ratioP2;P2;SDS_P1;SDS_P2;PMS_P1;PMS_P2;Temp;Humidity;BMP_temperature;BMP_pressure;BME280_temperature;BME280_humidity;BME280_pressure;Samples;Min_cycle;Max_cycle;Signal;HPM_P1;HPM_P2
2021/07/07 00:00:00;;;;;;;9.85;3.13;;;;;;;;;;5110532;28;20031;-68
2021/07/07 00:02:26;;;;;;;12.43;3.45;;;;;;;;;;5109358;28;20036;-68
2021/07/07 00:04:52;;;;;;;11.57;3.58;;;;;;;;;;5088774;28;20016;-68
2021/07/07 00:07:18;;;;;;;14.48;3.42;;;;;;;;;;5108645;28;20020;-68
2021/07/07 00:09:44;;;;;;;11.77;3.17;;;;;;;;;;5110299;28;20019;-67
2021/07/07 00:12:10;;;;;;;11.68;3.40;;;;;;;;;;5109621;28;20024;-68
2021/07/07 00:14:36;;;;;;;12.23;3.17;;;;;;;;;;5108131;28;20034;-68
2021/07/07 00:17:02;;;;;;;12.70;3.60;;;;;;;;;;5110104;28;20526;-67
2021/07/07 00:19:28;;;;;;;12.48;3.17;;;;;;;;;;5109232;28;20110;-68
2021/07/07 00:21:58;;;;;;;10.63;3.40;;;;;;;;;;5109563;28;20061;-68
2021/07/07 00:24:24;;;;;;;7.85;2.83;;;;;;;;;;5108688;28;20051;-68
2021/07/07 00:26:50;;;;;;;11.38;3.65;;;;;;;;;;5109985;28;20111;-68
2021/07/07 00:29:16;;;;;;;12.65;3.60;;;;;;;;;;5108234;28;20028;-68
2021/07/07 00:31:42;;;;;;;9.27;3.25;;;;;;;;;;5109206;28;20011;-68
2021/07/07 00:34:08;;;;;;;13.52;3.90;;;;;;;;;;5108189;28;20073;-68
2021/07/07 00:36:34;;;;;;;12.45;3.72;;;;;;;;;;5110042;28;20026;-68
2021/07/07 00:39:00;;;;;;;11.18;4.18;;;;;;;;;;5093300;28;20032;-68
2021/07/07 00:41:26;;;;;;;12.20;3.40;;;;;;;;;;5113327;28;20030;-68
2021/07/07 00:43:52;;;;;;;13.25;4.03;;;;;;;;;;5112537;28;20036;-68
2021/07/07 00:46:19;;;;;;;18.45;3.97;;;;;;;;;;5114336;28;20483;-68
2021/07/07 00:48:46;;;;;;;10.65;4.15;;;;;;;;;;5113558;28;20028;-68
2021/07/07 00:51:13;;;;;;;8.40;3.35;;;;;;;;;;5112560;28;20055;-68
2021/07/07 00:53:40;;;;;;;10.68;3.55;;;;;;;;;;5111917;28;20062;-68
2021/07/07 00:56:06;;;;;;;15.95;4.07;;;;;;;;;;5113150;28;20023;-68
2021/07/07 00:58:32;;;;;;;14.90;4.25;;;;;;;;;;5094396;27;20035;-68
2021/07/07 01:00:58;;;;;;;11.68;4.07;;;;;;;;;;5112270;28;20061;-68
2021/07/07 01:03:25;;;;;;;12.48;3.75;;;;;;;;;;5112348;28;20027;-68
2021/07/07 01:05:51;;;;;;;8.95;3.40;;;;;;;;;;5094126;28;20030;-67
2021/07/07 01:08:17;;;;;;;12.10;3.97;;;;;;;;;;5113104;28;20024;-68
2021/07/07 01:10:43;;;;;;;8.77;3.40;;;;;;;;;;5113368;28;20112;-68
2021/07/07 01:13:09;;;;;;;14.00;3.20;;;;;;;;;;5113110;28;20080;-68
2021/07/07 01:15:37;;;;;;;11.88;3.53;;;;;;;;;;5112273;28;20050;-68
2021/07/07 01:18:03;;;;;;;8.68;3.40;;;;;;;;;;5112913;28;20031;-68
2021/07/07 01:20:29;;;;;;;15.52;3.55;;;;;;;;;;5110252;28;20032;-67
2021/07/07 01:22:58;;;;;;;8.80;3.08;;;;;;;;;;5094110;28;20077;-68
2021/07/07 01:25:25;;;;;;;20.27;5.70;;;;;;;;;;5112374;27;20027;-68
2021/07/07 01:27:51;;;;;;;9.98;3.40;;;;;;;;;;5112767;28;20027;-68
2021/07/07 01:30:24;;;;;;;10.57;3.97;;;;;;;;;;5094254;28;20115;-68
2021/07/07 01:32:51;;;;;;;10.38;2.97;;;;;;;;;;5090669;28;20019;-68
2021/07/07 01:35:17;;;;;;;7.63;2.63;;;;;;;;;;5110886;28;20023;-67
2021/07/07 01:37:44;;;;;;;6.72;2.70;;;;;;;;;;5112968;28;20030;-68
2021/07/07 01:40:12;;;;;;;10.70;2.60;;;;;;;;;;5112326;28;20027;-67
2021/07/07 01:42:38;;;;;;;10.63;2.75;;;;;;;;;;5112419;28;20027;-68
2021/07/07 01:45:08;;;;;;;8.88;3.42;;;;;;;;;;5110973;28;20035;-68
2021/07/07 01:47:34;;;;;;;7.82;2.92;;;;;;;;;;5110545;28;20019;-67
2021/07/07 01:50:00;;;;;;;8.85;2.97;;;;;;;;;;5093131;28;20036;-68
2021/07/07 01:52:27;;;;;;;11.15;2.78;;;;;;;;;;5113197;27;20036;-67
2021/07/07 01:54:53;;;;;;;8.40;2.63;;;;;;;;;;5110758;28;20063;-67
2021/07/07 01:57:19;;;;;;;8.85;3.13;;;;;;;;;;5112501;28;20027;-67
2021/07/07 01:59:45;;;;;;;8.45;2.55;;;;;;;;;;5111686;28;20027;-68
2021/07/07 02:02:11;;;;;;;6.43;2.50;;;;;;;;;;5112412;28;20020;-68
2021/07/07 02:04:37;;;;;;;9.48;2.88;;;;;;;;;;5091600;28;20039;-68
2021/07/07 02:07:03;;;;;;;8.05;2.58;;;;;;;;;;5093362;28;20058;-68
2021/07/07 02:09:29;;;;;;;6.25;2.65;;;;;;;;;;5093307;28;20020;-69
2021/07/07 02:11:55;;;;;;;9.98;2.72;;;;;;;;;;5112189;28;20074;-68
2021/07/07 02:14:22;;;;;;;15.80;3.92;;;;;;;;;;5110222;28;20038;-68
2021/07/07 02:16:48;;;;;;;7.95;2.88;;;;;;;;;;5093528;28;20348;-67
2021/07/07 02:19:14;;;;;;;10.93;2.90;;;;;;;;;;5111777;28;20028;-68
2021/07/07 02:21:40;;;;;;;10.60;3.30;;;;;;;;;;5094101;28;20571;-68
2021/07/07 02:24:06;;;;;;;10.80;2.70;;;;;;;;;;5110731;28;20058;-68
2021/07/07 02:26:32;;;;;;;8.10;2.75;;;;;;;;;;5111008;28;20038;-68
2021/07/07 02:28:58;;;;;;;12.20;2.83;;;;;;;;;;5110545;28;20023;-67
2021/07/07 02:31:25;;;;;;;9.98;2.80;;;;;;;;;;5093617;28;20045;-68
2021/07/07 02:33:51;;;;;;;7.25;2.80;;;;;;;;;;5110663;28;20111;-67
2021/07/07 02:36:17;;;;;;;12.02;3.20;;;;;;;;;;5111395;28;20032;-68
2021/07/07 02:38:43;;;;;;;8.68;2.45;;;;;;;;;;5110749;28;20521;-67
2021/07/07 02:41:09;;;;;;;11.43;3.05;;;;;;;;;;5092278;28;20031;-68
2021/07/07 02:43:35;;;;;;;8.25;2.95;;;;;;;;;;5110117;28;20028;-67
2021/07/07 02:46:02;;;;;;;8.15;2.97;;;;;;;;;;5092340;28;20031;-68
2021/07/07 02:48:28;;;;;;;8.07;3.30;;;;;;;;;;5110755;28;20068;-67
2021/07/07 02:50:54;;;;;;;10.57;3.58;;;;;;;;;;5111631;28;20043;-67
2021/07/07 02:53:21;;;;;;;11.18;3.28;;;;;;;;;;5110579;28;20019;-67
2021/07/07 02:55:47;;;;;;;8.25;3.13;;;;;;;;;;5092398;28;20019;-67
2021/07/07 02:58:14;;;;;;;10.95;3.05;;;;;;;;;;5110645;28;20024;-67
2021/07/07 03:00:44;;;;;;;9.07;3.33;;;;;;;;;;5093735;28;20024;-67
2021/07/07 03:03:11;;;;;;;11.20;3.10;;;;;;;;;;5110641;28;20028;-67
2021/07/07 03:05:41;;;;;;;11.27;2.88;;;;;;;;;;5090704;28;20035;-67
2021/07/07 03:08:09;;;;;;;11.68;3.08;;;;;;;;;;5110324;28;20552;-67
2021/07/07 03:10:35;;;;;;;13.00;3.33;;;;;;;;;;5111507;28;20020;-67
2021/07/07 03:13:01;;;;;;;11.98;3.70;;;;;;;;;;5092008;28;20031;-67
2021/07/07 03:15:27;;;;;;;7.93;3.03;;;;;;;;;;5108804;28;20095;-67
2021/07/07 03:17:54;;;;;;;9.10;3.22;;;;;;;;;;5110497;28;20020;-67
2021/07/07 03:20:20;;;;;;;10.27;3.33;;;;;;;;;;5111236;28;20106;-68
2021/07/07 03:22:47;;;;;;;11.07;3.40;;;;;;;;;;5091246;28;20015;-67
2021/07/07 03:25:13;;;;;;;14.45;3.55;;;;;;;;;;5109631;28;20190;-67
2021/07/07 03:27:39;;;;;;;10.07;3.33;;;;;;;;;;5111029;28;20061;-67
2021/07/07 03:30:06;;;;;;;13.52;4.00;;;;;;;;;;5091857;28;20174;-67
2021/07/07 03:32:33;;;;;;;9.77;3.22;;;;;;;;;;5110804;28;20076;-67
2021/07/07 03:34:59;;;;;;;11.48;3.30;;;;;;;;;;5087960;28;20453;-68
2021/07/07 03:37:25;;;;;;;8.18;3.35;;;;;;;;;;5109495;28;20525;-68
2021/07/07 03:39:51;;;;;;;10.75;3.35;;;;;;;;;;5110397;28;20073;-68
2021/07/07 03:42:17;;;;;;;9.15;3.22;;;;;;;;;;5091923;28;20493;-68
2021/07/07 03:44:43;;;;;;;9.77;3.92;;;;;;;;;;5108835;28;20019;-67
2021/07/07 03:47:10;;;;;;;11.80;3.53;;;;;;;;;;5109677;28;20023;-67
2021/07/07 03:49:36;;;;;;;9.23;3.38;;;;;;;;;;5108348;28;20008;-68
2021/07/07 03:52:03;;;;;;;8.55;3.15;;;;;;;;;;5109698;28;20059;-68
2021/07/07 03:54:29;;;;;;;8.65;3.65;;;;;;;;;;5106928;28;20084;-68
2021/07/07 03:56:55;;;;;;;12.45;3.85;;;;;;;;;;5091446;28;20016;-68
2021/07/07 03:59:21;;;;;;;9.43;3.40;;;;;;;;;;5110081;27;20026;-67
2021/07/07 04:01:48;;;;;;;9.88;3.78;;;;;;;;;;5110001;28;20015;-67
2021/07/07 04:04:14;;;;;;;10.27;3.42;;;;;;;;;;5108739;28;20028;-68
2021/07/07 04:06:41;;;;;;;11.20;4.53;;;;;;;;;;5110013;28;20091;-68
2021/07/07 04:09:07;;;;;;;12.15;3.97;;;;;;;;;;5091408;28;20075;-68
2021/07/07 04:11:33;;;;;;;9.75;3.95;;;;;;;;;;5109895;28;20047;-68
2021/07/07 04:13:59;;;;;;;12.07;3.70;;;;;;;;;;5108060;28;20047;-67
2021/07/07 04:16:26;;;;;;;8.30;3.72;;;;;;;;;;5090835;28;20049;-67
2021/07/07 04:18:52;;;;;;;14.35;4.30;;;;;;;;;;5109803;28;20053;-68
2021/07/07 04:21:18;;;;;;;14.20;4.10;;;;;;;;;;5090735;28;20027;-68
2021/07/07 04:23:45;;;;;;;11.00;5.05;;;;;;;;;;5108157;28;20446;-68
2021/07/07 04:26:11;;;;;;;11.60;4.18;;;;;;;;;;5108825;28;20019;-68
2021/07/07 04:28:37;;;;;;;13.70;4.18;;;;;;;;;;5107622;28;20020;-68
2021/07/07 04:31:03;;;;;;;8.25;3.88;;;;;;;;;;5108740;28;20032;-68
2021/07/07 04:33:29;;;;;;;12.05;4.13;;;;;;;;;;5090100;28;20023;-68
2021/07/07 04:35:55;;;;;;;14.38;5.95;;;;;;;;;;5108819;28;20031;-68
2021/07/07 04:38:21;;;;;;;10.55;4.40;;;;;;;;;;5109064;28;20032;-69
2021/07/07 04:40:47;;;;;;;10.07;4.10;;;;;;;;;;5108719;28;20024;-68
2021/07/07 04:43:13;;;;;;;14.85;4.43;;;;;;;;;;5107853;28;20027;-68
2021/07/07 04:45:39;;;;;;;12.40;4.20;;;;;;;;;;5108452;28;20043;-68
2021/07/07 04:48:05;;;;;;;13.75;4.35;;;;;;;;;;5090448;28;20039;-68
2021/07/07 04:50:31;;;;;;;10.18;4.05;;;;;;;;;;5089844;28;20418;-68
2021/07/07 04:52:57;;;;;;;10.52;4.43;;;;;;;;;;5089625;28;20020;-69
2021/07/07 04:55:23;;;;;;;12.02;4.70;;;;;;;;;;5107677;28;20065;-68
2021/07/07 04:57:49;;;;;;;11.02;3.83;;;;;;;;;;5106525;28;20023;-67
2021/07/07 05:00:21;;;;;;;11.40;4.53;;;;;;;;;;5104630;28;20035;-68
2021/07/07 05:02:47;;;;;;;11.45;3.97;;;;;;;;;;5107219;28;20081;-68
2021/07/07 05:05:15;;;;;;;11.75;4.00;;;;;;;;;;5079554;28;20114;-68
2021/07/07 05:07:43;;;;;;;11.60;4.47;;;;;;;;;;5106216;28;20024;-68
2021/07/07 05:10:09;;;;;;;15.57;4.75;;;;;;;;;;5104082;28;20036;-67
2021/07/07 05:12:36;;;;;;;11.95;4.85;;;;;;;;;;5089195;28;20019;-67
2021/07/07 05:15:02;;;;;;;17.95;6.60;;;;;;;;;;5088822;28;20028;-68
2021/07/07 05:17:29;;;;;;;11.07;4.65;;;;;;;;;;5089534;28;20035;-68
2021/07/07 05:19:55;;;;;;;15.77;5.80;;;;;;;;;;5088265;28;20227;-67
2021/07/07 05:22:21;;;;;;;17.02;5.57;;;;;;;;;;5104399;28;20023;-68
2021/07/07 05:24:48;;;;;;;8.80;4.28;;;;;;;;;;5106133;27;20031;-67
2021/07/07 05:27:14;;;;;;;8.50;4.03;;;;;;;;;;5109187;27;20047;-68
2021/07/07 05:29:40;;;;;;;14.90;4.15;;;;;;;;;;5112122;28;20043;-68
2021/07/07 05:32:07;;;;;;;11.75;5.20;;;;;;;;;;5108619;28;20023;-68
2021/07/07 05:34:35;;;;;;;13.25;4.20;;;;;;;;;;5092645;28;20032;-68
2021/07/07 05:37:01;;;;;;;15.02;5.50;;;;;;;;;;5110310;28;20024;-68
2021/07/07 05:39:27;;;;;;;13.68;5.10;;;;;;;;;;5107637;27;20028;-68
2021/07/07 05:41:53;;;;;;;14.88;4.38;;;;;;;;;;5110912;28;20027;-69
2021/07/07 05:44:19;;;;;;;12.68;4.93;;;;;;;;;;5111562;28;20023;-68
2021/07/07 05:46:45;;;;;;;11.43;4.47;;;;;;;;;;5092919;28;20020;-67
2021/07/07 05:49:11;;;;;;;14.18;5.60;;;;;;;;;;5110275;28;20036;-68
2021/07/07 05:51:37;;;;;;;10.73;4.65;;;;;;;;;;5092835;28;20511;-67
2021/07/07 05:54:04;;;;;;;10.95;4.38;;;;;;;;;;5111378;28;20027;-68
2021/07/07 05:56:30;;;;;;;16.05;4.38;;;;;;;;;;5112255;27;20503;-68
2021/07/07 05:58:56;;;;;;;12.82;5.15;;;;;;;;;;5109082;28;20110;-68
2021/07/07 06:01:22;;;;;;;10.13;5.28;;;;;;;;;;5111047;28;20051;-68
2021/07/07 06:03:48;;;;;;;16.20;5.28;;;;;;;;;;5108445;28;20507;-67
2021/07/07 06:06:14;;;;;;;12.85;4.80;;;;;;;;;;5091534;28;20024;-67
2021/07/07 06:08:40;;;;;;;12.07;4.40;;;;;;;;;;5093034;28;20024;-67
2021/07/07 06:11:06;;;;;;;12.82;5.38;;;;;;;;;;5110582;28;20030;-67
2021/07/07 06:13:32;;;;;;;8.60;3.97;;;;;;;;;;5113429;27;20046;-67
2021/07/07 06:15:58;;;;;;;12.95;4.45;;;;;;;;;;5105180;28;20040;-67
2021/07/07 06:18:24;;;;;;;11.95;4.78;;;;;;;;;;5100573;28;20031;-68
2021/07/07 06:20:50;;;;;;;10.40;4.97;;;;;;;;;;5099174;28;20020;-68
2021/07/07 06:23:16;;;;;;;10.90;4.18;;;;;;;;;;5100705;28;20061;-67
2021/07/07 06:25:42;;;;;;;9.88;3.85;;;;;;;;;;5099135;27;20080;-68
2021/07/07 06:28:08;;;;;;;6.90;3.53;;;;;;;;;;5089333;28;20479;-68
2021/07/07 06:30:34;;;;;;;10.43;4.32;;;;;;;;;;5106449;27;20016;-67
2021/07/07 06:33:01;;;;;;;13.57;4.07;;;;;;;;;;5105447;28;20020;-68
2021/07/07 06:35:34;;;;;;;8.50;4.13;;;;;;;;;;5104843;28;20046;-67
2021/07/07 06:38:00;;;;;;;10.23;4.30;;;;;;;;;;5106211;28;20023;-67
2021/07/07 06:40:26;;;;;;;11.25;4.03;;;;;;;;;;5096291;28;20031;-68
2021/07/07 06:42:53;;;;;;;7.05;4.20;;;;;;;;;;5107273;28;20572;-67
2021/07/07 06:45:20;;;;;;;15.07;4.55;;;;;;;;;;5105713;28;20085;-69
2021/07/07 06:47:46;;;;;;;8.48;3.58;;;;;;;;;;5104069;27;20107;-67
2021/07/07 06:50:13;;;;;;;7.90;3.88;;;;;;;;;;5090369;28;20039;-68
2021/07/07 06:52:39;;;;;;;22.40;4.82;;;;;;;;;;5102195;28;20032;-68
2021/07/07 06:55:06;;;;;;;9.65;3.85;;;;;;;;;;5086891;28;20153;-67
2021/07/07 06:57:35;;;;;;;10.85;4.20;;;;;;;;;;5088915;28;20063;-68
2021/07/07 07:00:05;;;;;;;10.43;3.97;;;;;;;;;;5086978;28;20031;-68
2021/07/07 07:02:31;;;;;;;10.07;3.47;;;;;;;;;;5105087;28;20028;-68
2021/07/07 07:04:58;;;;;;;10.10;3.92;;;;;;;;;;5101484;27;20069;-67
2021/07/07 07:07:25;;;;;;;9.98;3.75;;;;;;;;;;5104246;28;20022;-68
2021/07/07 07:09:51;;;;;;;16.50;4.43;;;;;;;;;;5101262;28;20019;-68
2021/07/07 07:12:17;;;;;;;9.35;4.30;;;;;;;;;;5103447;28;20536;-68
2021/07/07 07:14:43;;;;;;;7.95;4.15;;;;;;;;;;5081063;28;20044;-67
2021/07/07 07:17:09;;;;;;;11.35;3.60;;;;;;;;;;5100586;28;20081;-68
2021/07/07 07:19:35;;;;;;;9.88;3.88;;;;;;;;;;5103159;28;20032;-68
2021/07/07 07:22:01;;;;;;;12.40;3.78;;;;;;;;;;5083371;28;20024;-67
2021/07/07 07:24:30;;;;;;;10.68;4.10;;;;;;;;;;5099313;28;20486;-67
2021/07/07 07:26:57;;;;;;;9.93;3.80;;;;;;;;;;5101365;27;20021;-67
2021/07/07 07:29:23;;;;;;;10.20;3.53;;;;;;;;;;5102007;28;20020;-67
2021/07/07 07:31:49;;;;;;;12.05;4.10;;;;;;;;;;5102207;28;20036;-67
2021/07/07 07:34:15;;;;;;;12.60;4.05;;;;;;;;;;5097702;28;20032;-67
2021/07/07 07:36:42;;;;;;;10.32;3.53;;;;;;;;;;5104536;27;20027;-67
2021/07/07 07:39:15;;;;;;;9.60;3.42;;;;;;;;;;5084652;28;20028;-68
2021/07/07 07:41:41;;;;;;;17.23;4.05;;;;;;;;;;5101234;28;20020;-67
2021/07/07 07:44:08;;;;;;;8.90;3.55;;;;;;;;;;5098221;28;20123;-67
2021/07/07 07:46:34;;;;;;;10.80;3.38;;;;;;;;;;5102355;28;20120;-68
2021/07/07 07:49:01;;;;;;;9.27;2.83;;;;;;;;;;5101220;28;20038;-68
2021/07/07 07:51:28;;;;;;;6.90;3.10;;;;;;;;;;5101473;28;20043;-68
2021/07/07 07:53:54;;;;;;;9.05;3.83;;;;;;;;;;5081714;28;20400;-69
2021/07/07 07:56:20;;;;;;;7.35;3.20;;;;;;;;;;5097223;27;20036;-68
2021/07/07 07:58:47;;;;;;;9.95;3.63;;;;;;;;;;5085504;28;20112;-68
2021/07/07 08:01:13;;;;;;;6.40;3.45;;;;;;;;;;5083573;28;20090;-68
2021/07/07 08:03:39;;;;;;;10.52;3.80;;;;;;;;;;5097110;28;20026;-67
2021/07/07 08:06:06;;;;;;;9.38;3.85;;;;;;;;;;5082938;28;20028;-67
2021/07/07 08:08:32;;;;;;;11.52;3.65;;;;;;;;;;5100716;28;20121;-68
2021/07/07 08:10:58;;;;;;;14.68;4.47;;;;;;;;;;5102405;28;20026;-68
2021/07/07 08:13:24;;;;;;;13.32;3.80;;;;;;;;;;5083712;28;20016;-68
2021/07/07 08:15:50;;;;;;;8.10;3.40;;;;;;;;;;5082629;28;20483;-68
2021/07/07 08:18:16;;;;;;;7.50;4.22;;;;;;;;;;5102751;28;20042;-68
2021/07/07 08:20:42;;;;;;;9.63;4.45;;;;;;;;;;5102224;28;20020;-67
2021/07/07 08:23:08;;;;;;;10.75;4.45;;;;;;;;;;5104870;28;20524;-67
2021/07/07 08:25:35;;;;;;;12.90;3.90;;;;;;;;;;5102451;28;20016;-67
2021/07/07 08:28:01;;;;;;;12.05;3.88;;;;;;;;;;5102475;28;20043;-68
2021/07/07 08:30:27;;;;;;;8.55;3.97;;;;;;;;;;5087231;28;20039;-67
2021/07/07 08:32:53;;;;;;;8.90;4.00;;;;;;;;;;5086925;28;20035;-68
2021/07/07 08:35:19;;;;;;;9.75;3.85;;;;;;;;;;5098550;28;20032;-67
2021/07/07 08:37:46;;;;;;;8.32;4.05;;;;;;;;;;5103564;28;21248;-68
2021/07/07 08:40:12;;;;;;;9.38;3.20;;;;;;;;;;5085408;28;20019;-68
2021/07/07 08:42:40;;;;;;;10.70;3.55;;;;;;;;;;5102704;28;20034;-68
2021/07/07 08:45:10;;;;;;;7.85;2.72;;;;;;;;;;5098690;28;20023;-67
2021/07/07 08:47:37;;;;;;;7.47;2.90;;;;;;;;;;5086785;28;20111;-67
2021/07/07 08:50:05;;;;;;;5.65;2.92;;;;;;;;;;5083423;28;20027;-68
2021/07/07 08:52:31;;;;;;;9.45;3.20;;;;;;;;;;5086075;28;20479;-68
2021/07/07 08:54:57;;;;;;;10.00;3.17;;;;;;;;;;5099478;28;20108;-68
2021/07/07 08:57:23;;;;;;;7.38;3.35;;;;;;;;;;5086553;28;20479;-67
2021/07/07 08:59:50;;;;;;;12.40;3.40;;;;;;;;;;5104733;28;21372;-67
2021/07/07 09:02:16;;;;;;;9.55;3.35;;;;;;;;;;5107518;27;20066;-67
2021/07/07 09:04:46;;;;;;;8.32;3.30;;;;;;;;;;5103377;28;21952;-68
2021/07/07 09:07:12;;;;;;;8.95;3.08;;;;;;;;;;5107340;28;20107;-67
2021/07/07 09:09:38;;;;;;;9.70;3.65;;;;;;;;;;5106507;28;20111;-68
2021/07/07 09:12:14;;;;;;;8.55;3.33;;;;;;;;;;5088887;28;20612;-68
2021/07/07 09:14:42;;;;;;;12.30;3.60;;;;;;;;;;5084563;28;20031;-67
2021/07/07 09:17:13;;;;;;;8.32;3.33;;;;;;;;;;5103776;28;20031;-68
2021/07/07 09:19:39;;;;;;;7.82;3.90;;;;;;;;;;5106282;27;20036;-67
2021/07/07 09:22:07;;;;;;;16.83;3.97;;;;;;;;;;5105847;28;20028;-67
2021/07/07 09:24:33;;;;;;;8.60;3.50;;;;;;;;;;5102856;28;20045;-68
2021/07/07 09:27:07;;;;;;;12.85;5.07;;;;;;;;;;5105248;28;20020;-68
2021/07/07 09:29:36;;;;;;;9.52;3.38;;;;;;;;;;5105734;28;20502;-68
2021/07/07 09:32:35;;;;;;;8.93;4.07;;;;;;;;;;5105389;28;20517;-67
2021/07/07 09:35:02;;;;;;;9.98;3.42;;;;;;;;;;5056316;28;20040;-68
2021/07/07 09:37:34;;;;;;;8.77;3.50;;;;;;;;;;5106292;27;20020;-67
2021/07/07 09:40:00;;;;;;;12.40;3.85;;;;;;;;;;5105676;28;20015;-67
2021/07/07 09:42:31;;;;;;;7.25;3.47;;;;;;;;;;5087340;28;20035;-68
2021/07/07 09:44:58;;;;;;;11.77;4.53;;;;;;;;;;5102668;28;20019;-67
2021/07/07 09:47:25;;;;;;;9.00;4.20;;;;;;;;;;5088345;28;20020;-68
2021/07/07 09:49:52;;;;;;;11.27;3.67;;;;;;;;;;5105404;28;20028;-68
2021/07/07 09:52:20;;;;;;;9.02;2.80;;;;;;;;;;5105895;28;20184;-67
2021/07/07 09:54:46;;;;;;;12.00;3.38;;;;;;;;;;5103951;27;20515;-69
2021/07/07 09:57:13;;;;;;;14.25;3.75;;;;;;;;;;5105867;28;20055;-68
2021/07/07 09:59:39;;;;;;;9.93;3.53;;;;;;;;;;5088311;28;20031;-68
2021/07/07 10:02:05;;;;;;;21.20;3.53;;;;;;;;;;5105224;28;20077;-67
2021/07/07 10:04:33;;;;;;;6.80;3.47;;;;;;;;;;5101504;28;20131;-67
2021/07/07 10:07:00;;;;;;;9.85;4.05;;;;;;;;;;5105420;28;20023;-67
2021/07/07 10:09:26;;;;;;;6.20;3.53;;;;;;;;;;5105045;28;20026;-66
2021/07/07 10:11:54;;;;;;;8.57;3.75;;;;;;;;;;5104641;28;20452;-68
2021/07/07 10:14:21;;;;;;;5.82;3.80;;;;;;;;;;5102455;28;20557;-66
2021/07/07 10:16:47;;;;;;;8.05;3.60;;;;;;;;;;5104314;28;20028;-66
2021/07/07 10:19:14;;;;;;;8.60;3.53;;;;;;;;;;5103826;28;20031;-67
2021/07/07 10:21:40;;;;;;;6.20;3.03;;;;;;;;;;5106965;28;20027;-67
2021/07/07 10:24:08;;;;;;;7.05;3.58;;;;;;;;;;5101827;28;20031;-67
2021/07/07 10:26:34;;;;;;;9.10;4.07;;;;;;;;;;5103860;27;20031;-67
2021/07/07 10:29:00;;;;;;;9.95;3.33;;;;;;;;;;5089271;28;20376;-67
2021/07/07 10:31:45;;;;;;;7.32;3.28;;;;;;;;;;5104533;28;20483;-66
2021/07/07 10:34:11;;;;;;;7.35;2.88;;;;;;;;;;5102030;28;20481;-67
2021/07/07 10:36:40;;;;;;;11.52;2.78;;;;;;;;;;5111213;28;20149;-67
2021/07/07 10:39:08;;;;;;;8.65;2.85;;;;;;;;;;5101062;28;20035;-67
2021/07/07 10:41:46;;;;;;;11.60;3.75;;;;;;;;;;5098399;28;20042;-66
2021/07/07 10:44:32;;;;;;;8.35;2.97;;;;;;;;;;5108065;27;20031;-67
2021/07/07 10:46:59;;;;;;;7.07;2.75;;;;;;;;;;5097863;28;20043;-67
2021/07/07 10:49:30;;;;;;;10.40;3.45;;;;;;;;;;5099742;28;20110;-67
2021/07/07 10:51:57;;;;;;;8.67;3.03;;;;;;;;;;5095226;28;20065;-67
2021/07/07 10:54:24;;;;;;;10.20;3.22;;;;;;;;;;5096400;28;20019;-68
2021/07/07 10:56:51;;;;;;;7.45;3.03;;;;;;;;;;5110706;28;20027;-66
2021/07/07 10:59:36;;;;;;;7.53;2.30;;;;;;;;;;5096277;28;20032;-67
2021/07/07 11:02:06;;;;;;;7.57;2.88;;;;;;;;;;5111568;27;20507;-66
2021/07/07 11:04:38;;;;;;;11.30;3.45;;;;;;;;;;5107885;28;20135;-67
2021/07/07 11:07:23;;;;;;;10.63;3.05;;;;;;;;;;5091338;28;20110;-66
2021/07/07 11:09:53;;;;;;;14.55;3.65;;;;;;;;;;5109908;28;20510;-67
2021/07/07 11:12:41;;;;;;;10.00;3.58;;;;;;;;;;5090402;28;20035;-66
2021/07/07 11:15:16;;;;;;;9.35;3.10;;;;;;;;;;5058466;28;20053;-67
2021/07/07 11:17:48;;;;;;;9.32;3.30;;;;;;;;;;5112218;28;20028;-67
2021/07/07 11:20:15;;;;;;;8.48;3.33;;;;;;;;;;5093062;28;20028;-67
2021/07/07 11:22:42;;;;;;;11.52;4.00;;;;;;;;;;5109430;28;20293;-67
2021/07/07 11:25:10;;;;;;;12.45;4.25;;;;;;;;;;5108036;28;20035;-66
2021/07/07 11:27:36;;;;;;;12.88;3.20;;;;;;;;;;5114212;27;20015;-66
2021/07/07 11:30:13;;;;;;;9.50;3.47;;;;;;;;;;5090854;28;20031;-66
2021/07/07 11:32:40;;;;;;;10.63;3.00;;;;;;;;;;5110228;28;20518;-67
2021/07/07 11:35:07;;;;;;;16.15;4.60;;;;;;;;;;5107603;28;20073;-66
2021/07/07 11:37:34;;;;;;;13.93;3.65;;;;;;;;;;5088465;28;20490;-65
2021/07/07 11:40:05;;;;;;;11.07;3.47;;;;;;;;;;5109773;27;20034;-67
2021/07/07 11:42:31;;;;;;;11.95;3.78;;;;;;;;;;5108657;27;20647;-66
2021/07/07 11:44:57;;;;;;;11.60;4.03;;;;;;;;;;5107911;27;20031;-66
2021/07/07 11:47:29;;;;;;;9.95;4.10;;;;;;;;;;5086762;28;20032;-66
2021/07/07 11:50:06;;;;;;;14.30;3.42;;;;;;;;;;5085570;28;20050;-66
2021/07/07 11:52:32;;;;;;;9.30;3.25;;;;;;;;;;5094181;27;20157;-67
2021/07/07 11:54:59;;;;;;;14.77;3.72;;;;;;;;;;5090152;28;20426;-66
2021/07/07 11:57:26;;;;;;;8.10;3.10;;;;;;;;;;5085242;28;20031;-66
2021/07/07 11:59:53;;;;;;;12.43;3.50;;;;;;;;;;5105204;28;20115;-66
2021/07/07 12:02:19;;;;;;;12.35;3.88;;;;;;;;;;5106921;28;20023;-66
2021/07/07 12:04:46;;;;;;;9.57;3.58;;;;;;;;;;5094568;28;20403;-64
2021/07/07 12:07:12;;;;;;;13.35;4.25;;;;;;;;;;5097904;28;20016;-66
2021/07/07 12:09:38;;;;;;;15.00;3.63;;;;;;;;;;5103711;27;20061;-67
2021/07/07 12:12:09;;;;;;;13.57;4.22;;;;;;;;;;5105043;28;20028;-66
2021/07/07 12:14:39;;;;;;;14.85;4.88;;;;;;;;;;5096198;28;20032;-65
2021/07/07 12:17:05;;;;;;;15.20;4.72;;;;;;;;;;5098961;27;20024;-65
2021/07/07 12:19:32;;;;;;;14.13;4.28;;;;;;;;;;5086751;28;20129;-65
2021/07/07 12:21:59;;;;;;;14.48;4.45;;;;;;;;;;5101504;27;20161;-67
2021/07/07 12:24:27;;;;;;;13.48;3.72;;;;;;;;;;5080181;28;20027;-67
2021/07/07 12:26:54;;;;;;;13.05;3.63;;;;;;;;;;5103753;27;20020;-67
2021/07/07 12:29:20;;;;;;;15.13;3.90;;;;;;;;;;5085513;28;20103;-66
2021/07/07 12:31:47;;;;;;;15.65;4.88;;;;;;;;;;5098134;28;20614;-66
2021/07/07 12:34:16;;;;;;;19.60;4.95;;;;;;;;;;5091375;28;20391;-67
2021/07/07 12:36:45;;;;;;;12.80;4.57;;;;;;;;;;5098840;28;20034;-66
2021/07/07 12:39:15;;;;;;;14.23;4.50;;;;;;;;;;5105740;28;20361;-65
2021/07/07 12:41:43;;;;;;;17.45;4.45;;;;;;;;;;5086311;28;20024;-66
2021/07/07 12:44:13;;;;;;;15.10;5.05;;;;;;;;;;5085809;28;20028;-66
2021/07/07 12:46:51;;;;;;;10.88;4.82;;;;;;;;;;5090251;28;20024;-66
2021/07/07 12:49:24;;;;;;;12.82;5.05;;;;;;;;;;5105529;28;20507;-66
2021/07/07 12:51:51;;;;;;;16.02;4.53;;;;;;;;;;5089500;28;20036;-66
2021/07/07 12:54:18;;;;;;;17.10;5.28;;;;;;;;;;5082054;28;20020;-65
2021/07/07 12:56:54;;;;;;;14.38;4.55;;;;;;;;;;5089990;28;20047;-65
2021/07/07 12:59:20;;;;;;;13.20;4.38;;;;;;;;;;5084433;28;20036;-66
2021/07/07 13:01:46;;;;;;;13.40;3.72;;;;;;;;;;5089538;28;20028;-67
2021/07/07 13:04:20;;;;;;;14.32;4.05;;;;;;;;;;5087798;28;20778;-64
2021/07/07 13:06:46;;;;;;;17.33;5.10;;;;;;;;;;5089218;28;20078;-66
2021/07/07 13:09:18;;;;;;;15.32;4.75;;;;;;;;;;5089189;28;20033;-65
2021/07/07 13:11:45;;;;;;;16.63;4.93;;;;;;;;;;5088497;28;20016;-66
2021/07/07 13:14:14;;;;;;;22.80;5.13;;;;;;;;;;5079236;28;20052;-66
2021/07/07 13:16:50;;;;;;;12.70;3.92;;;;;;;;;;5086477;28;20057;-66
2021/07/07 13:19:26;;;;;;;14.45;4.13;;;;;;;;;;5093180;28;20032;-66
2021/07/07 13:21:52;;;;;;;9.20;4.28;;;;;;;;;;5073851;28;20107;-67
2021/07/07 13:24:21;;;;;;;14.52;4.35;;;;;;;;;;5078985;28;20025;-66
2021/07/07 13:26:48;;;;;;;11.43;4.57;;;;;;;;;;5088636;28;20026;-67
2021/07/07 13:29:18;;;;;;;17.63;4.00;;;;;;;;;;5088754;28;20373;-67
2021/07/07 13:31:44;;;;;;;10.85;3.67;;;;;;;;;;5087656;28;20004;-67
2021/07/07 13:34:10;;;;;;;18.60;4.32;;;;;;;;;;5082002;28;20028;-66
2021/07/07 13:36:37;;;;;;;12.48;3.97;;;;;;;;;;5092216;28;20055;-66
2021/07/07 13:39:07;;;;;;;15.50;3.53;;;;;;;;;;5092292;28;20103;-67
2021/07/07 13:41:33;;;;;;;11.18;4.80;;;;;;;;;;5090352;28;20040;-66
2021/07/07 13:43:59;;;;;;;14.82;4.25;;;;;;;;;;5089476;28;20099;-65
2021/07/07 13:46:25;;;;;;;16.33;4.13;;;;;;;;;;5089493;28;20028;-65
2021/07/07 13:48:52;;;;;;;13.07;4.00;;;;;;;;;;5091603;28;20186;-66
2021/07/07 13:51:18;;;;;;;14.75;3.35;;;;;;;;;;5080192;28;20228;-66
2021/07/07 13:53:44;;;;;;;12.13;3.40;;;;;;;;;;5063053;28;20067;-66
2021/07/07 13:56:10;;;;;;;13.68;3.55;;;;;;;;;;5060575;28;20052;-67
2021/07/07 13:58:36;;;;;;;12.43;3.60;;;;;;;;;;5070903;28;20556;-66
2021/07/07 14:01:02;;;;;;;13.60;3.38;;;;;;;;;;5065180;28;20032;-66
2021/07/07 14:03:28;;;;;;;17.05;4.10;;;;;;;;;;5068604;28;20055;-67
2021/07/07 14:05:56;;;;;;;9.70;3.67;;;;;;;;;;5074129;28;20021;-65
2021/07/07 14:08:22;;;;;;;14.82;3.83;;;;;;;;;;5074303;28;20045;-65
2021/07/07 14:10:49;;;;;;;11.00;4.10;;;;;;;;;;5073586;28;20017;-65
2021/07/07 14:13:15;;;;;;;11.35;3.95;;;;;;;;;;5070379;28;20074;-67
2021/07/07 14:15:41;;;;;;;10.68;3.15;;;;;;;;;;5071249;28;20032;-66
2021/07/07 14:18:07;;;;;;;12.13;3.90;;;;;;;;;;5069561;28;20055;-66
2021/07/07 14:20:33;;;;;;;16.15;3.42;;;;;;;;;;5071358;28;20051;-65
2021/07/07 14:23:00;;;;;;;8.73;3.08;;;;;;;;;;5075359;28;20024;-65
2021/07/07 14:25:26;;;;;;;11.57;3.60;;;;;;;;;;5068533;28;20097;-67
2021/07/07 14:27:52;;;;;;;10.57;3.17;;;;;;;;;;5071074;28;20025;-67
2021/07/07 14:30:18;;;;;;;14.18;3.40;;;;;;;;;;5070203;28;20024;-67
2021/07/07 14:32:46;;;;;;;10.00;3.58;;;;;;;;;;5069271;28;20103;-67
2021/07/07 14:35:12;;;;;;;8.30;3.22;;;;;;;;;;5069075;28;20036;-67